Mount Princeton, Colorado
Current Conditions -  °F | °C
As of 1:34 AM on Saturday 29 Nov 2014 (Local Time) from K7BM Reporting Station
Clear Clear  
Wind Chill: 34°   Ceiling: Unl
Heat Index: 43°   Visibility: 10mi
Dew Point: -9°   Wind: 20mph
Humidity: 11%   Direction: 280°W
Pressure: 30"   Gusts: 36mph
Location:  38.7194°N, 106.276°W
Report Text: K7BM 290834Z AUTO 28017G31KT 240V320 10SM CLR 06/M23 A3000 RMK AO2
Loading
Personal Weather Stations






























Interactive Weather Map New forecast layout! Learn more

10-Day Weather Forecast

Advertisements
Track Severe Weather on mobile